Terminal Aerodrome Forecast
Issued by NWS

Current Version | Previous Version | Text Only | Print | Product List | Glossary Off
Versions: 1 2 3 4 5 6 7 8 9 10 11 12 13 14

000
FTUS44 KSJT 251742 CCA
TAFSOA
TAF COR
KSOA 251742Z 2518/2618 09006KT P6SM SKC
     FM252200 15007KT P6SM SKC
     FM261200 17007KT P6SM BKN010
     FM261700 19011KT P6SM BKN025=

USA.gov is the U.S. government's official web portal to all federal, state and local government web resources and services.